createdAt,value
2022-10-19T00:00:25.832Z,0.10
2022-10-19T00:02:52.156Z,0.20
2022-10-19T00:05:18.568Z,0.22
2022-10-19T00:07:44.853Z,0.32
2022-10-19T00:10:11.384Z,0.30
2022-10-19T00:12:37.929Z,0.22
2022-10-19T00:15:04.545Z,0.30
2022-10-19T00:17:31.041Z,0.40
2022-10-19T00:19:57.746Z,0.40
2022-10-19T00:22:24.026Z,0.28
2022-10-19T00:24:50.309Z,0.20
2022-10-19T00:27:16.634Z,0.10
2022-10-19T00:29:42.922Z,0.30
2022-10-19T00:32:09.227Z,0.20
2022-10-19T00:34:35.555Z,0.20
2022-10-19T00:37:01.856Z,0.20
2022-10-19T00:39:28.189Z,0.20
2022-10-19T00:41:54.506Z,0.22
2022-10-19T00:44:20.761Z,0.13
2022-10-19T00:46:50.251Z,0.20
2022-10-19T00:49:28.690Z,0.20
2022-10-19T00:52:14.850Z,0.10
2022-10-19T00:54:41.965Z,0.35
2022-10-19T00:57:08.763Z,0.50
2022-10-19T00:59:35.865Z,0.77
2022-10-19T01:02:03.222Z,0.45
2022-10-19T01:04:30.572Z,0.77
2022-10-19T01:06:57.374Z,0.60
2022-10-19T01:09:23.706Z,0.55
2022-10-19T01:12:08.773Z,0.45
2022-10-19T01:14:41.475Z,0.40
2022-10-19T01:17:13.784Z,0.40
2022-10-19T01:20:01.528Z,0.50
2022-10-19T01:22:45.507Z,0.30
2022-10-19T01:25:11.893Z,0.20
2022-10-19T01:27:53.049Z,0.30
2022-10-19T01:30:36.702Z,0.22
2022-10-19T01:33:16.072Z,0.20
2022-10-19T01:35:51.325Z,0.20
2022-10-19T01:38:32.651Z,0.20
2022-10-19T01:41:17.342Z,0.40
2022-10-19T01:43:46.824Z,0.20
2022-10-19T01:46:13.157Z,0.20
2022-10-19T01:48:41.548Z,0.30
2022-10-19T01:51:18.828Z,0.35
2022-10-19T01:53:47.831Z,0.20
2022-10-19T01:56:14.755Z,0.20
2022-10-19T01:58:43.913Z,0.30
2022-10-19T02:03:43.061Z,0.40
2022-10-19T02:06:10.921Z,0.30
2022-10-19T02:08:48.628Z,0.50
2022-10-19T02:11:16.015Z,0.30
2022-10-19T02:13:43.207Z,0.40
2022-10-19T02:16:13.709Z,0.30
2022-10-19T02:18:43.066Z,0.30
2022-10-19T02:21:09.502Z,0.20
2022-10-19T02:23:35.973Z,0.30
2022-10-19T02:26:02.456Z,0.20
2022-10-19T02:28:29.756Z,0.28
2022-10-19T02:30:56.587Z,0.35
2022-10-19T02:33:23.124Z,0.20
2022-10-19T02:35:49.570Z,0.20
2022-10-19T02:38:18.533Z,0.10
2022-10-19T02:40:48.974Z,0.15
2022-10-19T02:43:19.260Z,0.20
2022-10-19T02:45:54.035Z,0.40
2022-10-19T02:48:22.793Z,0.70
2022-10-19T02:50:49.270Z,1.00
2022-10-19T02:53:15.862Z,1.45
2022-10-19T02:55:42.579Z,1.00
2022-10-19T02:58:09.033Z,0.50
2022-10-19T03:00:35.637Z,0.60
2022-10-19T03:03:03.203Z,0.30
2022-10-19T03:05:29.717Z,0.30
2022-10-19T03:07:56.114Z,0.22
2022-10-19T03:10:22.412Z,0.30
2022-10-19T03:12:48.685Z,0.20
2022-10-19T03:15:16.237Z,0.20
2022-10-19T03:17:42.544Z,0.20
2022-10-19T03:20:09.403Z,0.50
2022-10-19T03:22:35.788Z,0.40
2022-10-19T03:25:02.222Z,0.30
2022-10-19T03:27:28.518Z,0.40
2022-10-19T03:29:54.794Z,0.30
2022-10-19T03:32:21.251Z,0.20
2022-10-19T03:34:47.538Z,0.20
2022-10-19T03:37:15.178Z,0.30
2022-10-19T03:39:41.515Z,0.47
2022-10-19T03:42:07.830Z,0.88
2022-10-19T03:44:34.117Z,0.77
2022-10-19T03:47:00.514Z,0.70
2022-10-19T03:49:26.791Z,0.90
2022-10-19T03:51:53.089Z,0.80
2022-10-19T03:54:20.676Z,0.77
2022-10-19T03:56:49.988Z,0.73
2022-10-19T03:59:16.358Z,0.50
2022-10-19T04:01:44.017Z,0.30
2022-10-19T04:04:11.666Z,0.30
2022-10-19T04:06:39.562Z,0.30
2022-10-19T04:09:06.604Z,0.30
2022-10-19T04:11:33.782Z,0.30
2022-10-19T04:14:00.288Z,0.20
2022-10-19T04:16:27.647Z,0.10
2022-10-19T04:18:54.093Z,0.13
2022-10-19T04:21:39.629Z,0.20
2022-10-19T04:24:09.010Z,0.20
2022-10-19T04:26:38.492Z,0.20
2022-10-19T04:29:05.087Z,0.17
2022-10-19T04:31:31.558Z,0.20
2022-10-19T04:33:57.881Z,0.10
2022-10-19T04:36:24.528Z,0.20
2022-10-19T04:38:50.817Z,0.32
2022-10-19T04:41:18.241Z,0.50
2022-10-19T04:43:45.354Z,0.50
2022-10-19T04:46:13.853Z,0.45
2022-10-19T04:48:40.948Z,0.30
2022-10-19T04:51:07.631Z,0.20
2022-10-19T04:53:34.305Z,0.20
2022-10-19T04:56:03.997Z,0.20
2022-10-19T04:58:30.437Z,0.28
2022-10-19T05:00:56.789Z,0.25
2022-10-19T05:03:23.101Z,0.50
2022-10-19T05:05:49.644Z,0.50
2022-10-19T05:08:16.478Z,0.57
2022-10-19T05:10:45.553Z,0.50
2022-10-19T05:13:14.113Z,0.30
2022-10-19T05:15:40.404Z,0.30
2022-10-19T05:18:06.675Z,0.28
2022-10-19T05:20:33.014Z,0.20
2022-10-19T05:23:03.260Z,0.30
2022-10-19T05:25:32.704Z,0.22
2022-10-19T05:27:59.142Z,0.30
2022-10-19T05:30:25.515Z,0.40
2022-10-19T05:32:51.784Z,0.40
2022-10-19T05:35:21.512Z,0.40
2022-10-19T05:37:48.858Z,0.30
2022-10-19T05:40:15.203Z,0.30
2022-10-19T05:42:41.550Z,0.25
2022-10-19T05:45:07.967Z,0.30
2022-10-19T05:47:34.643Z,0.30
2022-10-19T05:50:01.306Z,0.38
2022-10-19T05:52:27.830Z,0.30
2022-10-19T05:54:54.151Z,0.30
2022-10-19T05:57:20.531Z,0.30
2022-10-19T05:59:46.857Z,0.25
2022-10-19T06:02:13.689Z,0.30
2022-10-19T06:04:40.021Z,0.30
2022-10-19T06:07:06.308Z,0.35
2022-10-19T06:09:36.075Z,0.40
2022-10-19T06:12:02.675Z,0.40
2022-10-19T06:14:29.106Z,0.57
2022-10-19T06:16:55.453Z,0.40
2022-10-19T06:19:21.750Z,0.40
2022-10-19T06:21:48.027Z,0.30
2022-10-19T06:24:14.582Z,0.40
2022-10-19T06:26:41.105Z,0.70
2022-10-19T06:29:07.387Z,0.98
2022-10-19T06:31:34.939Z,0.82
2022-10-19T06:34:01.531Z,0.60
2022-10-19T06:36:28.997Z,0.50
2022-10-19T06:38:56.573Z,0.77
2022-10-19T06:41:23.049Z,0.70
2022-10-19T06:43:53.256Z,0.70
2022-10-19T06:46:21.984Z,0.60
2022-10-19T06:48:56.006Z,0.50
2022-10-19T06:51:22.828Z,1.10
2022-10-19T06:53:52.938Z,0.90
2022-10-19T06:56:24.587Z,1.83
2022-10-19T06:58:50.983Z,1.40
2022-10-19T07:01:17.379Z,1.35
2022-10-19T07:03:43.946Z,0.80
2022-10-19T07:06:11.596Z,1.33
2022-10-19T07:08:38.302Z,1.00
2022-10-19T07:11:06.576Z,0.80
2022-10-19T07:13:32.894Z,0.60
2022-10-19T07:16:00.022Z,1.25
2022-10-19T07:18:26.753Z,0.70
2022-10-19T07:20:57.125Z,0.68
2022-10-19T07:23:24.175Z,0.70
2022-10-19T07:25:52.661Z,0.60
2022-10-19T07:28:19.663Z,0.50
2022-10-19T07:30:45.952Z,1.98
2022-10-19T07:33:12.454Z,1.90
2022-10-19T07:35:38.965Z,3.05
2022-10-19T07:38:05.290Z,2.90
2022-10-19T07:40:31.622Z,1.75
2022-10-19T07:42:57.903Z,2.10
2022-10-19T07:45:24.177Z,4.57
2022-10-19T07:47:50.475Z,5.82
2022-10-19T07:50:16.824Z,4.13
2022-10-19T07:52:43.373Z,5.18
2022-10-19T07:55:10.034Z,4.85
2022-10-19T07:57:36.422Z,3.72
2022-10-19T08:00:02.939Z,4.55
2022-10-19T08:02:39.408Z,4.22
2022-10-19T08:05:15.845Z,4.80
2022-10-19T08:07:42.678Z,3.78
2022-10-19T08:10:09.203Z,4.03
2022-10-19T08:12:36.885Z,4.43
2022-10-19T08:15:06.578Z,2.95
2022-10-19T08:17:35.794Z,4.20
2022-10-19T08:20:02.286Z,4.15
2022-10-19T08:22:28.771Z,4.00
2022-10-19T08:24:55.053Z,6.93
2022-10-19T08:27:21.338Z,4.72
2022-10-19T08:29:47.742Z,3.30
2022-10-19T08:32:14.147Z,2.50
2022-10-19T08:34:41.313Z,3.67
2022-10-19T08:37:19.737Z,2.78
2022-10-19T08:39:54.132Z,2.25
2022-10-19T08:42:24.122Z,4.35
2022-10-19T08:45:09.139Z,2.50
2022-10-19T08:47:47.745Z,4.78
2022-10-19T08:50:37.190Z,5.63
2022-10-19T08:53:10.571Z,4.43
2022-10-19T08:55:58.703Z,4.57
2022-10-19T08:58:26.194Z,4.03
2022-10-19T09:00:58.229Z,3.63
2022-10-19T09:06:03.796Z,2.22
2022-10-19T09:08:30.324Z,6.20
2022-10-19T09:10:57.319Z,7.60
2022-10-19T09:13:41.273Z,4.93
2022-10-19T09:16:18.909Z,3.88
2022-10-19T09:18:47.132Z,3.58
2022-10-19T09:21:20.826Z,7.10
2022-10-19T09:23:50.133Z,4.22
2022-10-19T09:26:17.886Z,3.40
2022-10-19T09:28:44.206Z,4.35
2022-10-19T09:31:14.184Z,7.18
2022-10-19T09:33:41.793Z,7.20
2022-10-19T09:36:08.258Z,6.35
2022-10-19T09:38:34.769Z,6.63
2022-10-19T09:41:21.854Z,4.88
2022-10-19T09:43:53.880Z,3.35
2022-10-19T09:46:38.659Z,4.40
2022-10-19T09:49:05.648Z,6.47
2022-10-19T09:52:01.341Z,3.88
2022-10-19T09:54:35.146Z,2.47
2022-10-19T09:57:01.533Z,2.50
2022-10-19T09:59:33.696Z,5.20
2022-10-19T10:04:36.420Z,5.50
2022-10-19T10:07:03.457Z,4.55
2022-10-19T10:09:30.370Z,2.72
2022-10-19T10:11:59.315Z,2.80
2022-10-19T10:14:29.467Z,3.22
2022-10-19T10:17:07.528Z,3.40
2022-10-19T10:19:36.011Z,3.78
2022-10-19T10:22:03.941Z,5.13
2022-10-19T10:24:31.314Z,5.38
2022-10-19T10:26:59.619Z,5.07
2022-10-19T10:29:27.289Z,5.00
2022-10-19T10:32:01.945Z,3.35
2022-10-19T10:34:50.193Z,4.35
2022-10-19T10:37:21.883Z,3.47
2022-10-19T10:39:51.273Z,3.97
2022-10-19T10:42:19.930Z,5.00
2022-10-19T10:44:49.110Z,3.50
2022-10-19T10:47:16.902Z,3.50
2022-10-19T10:49:43.890Z,4.35
2022-10-19T10:52:12.851Z,5.00
2022-10-19T10:54:39.371Z,2.90
2022-10-19T10:57:12.334Z,2.13
2022-10-19T11:00:01.182Z,2.00
2022-10-19T11:02:35.718Z,2.65
2022-10-19T11:05:06.079Z,1.83
2022-10-19T11:07:33.630Z,2.72
2022-10-19T11:10:03.287Z,5.50
2022-10-19T11:12:41.343Z,4.03
2022-10-19T11:20:27.955Z,4.07
2022-10-19T11:22:59.680Z,5.45
2022-10-19T11:25:31.908Z,4.70
2022-10-19T11:28:19.425Z,4.10
2022-10-19T11:31:04.255Z,2.17
2022-10-19T11:33:37.431Z,2.80
2022-10-19T11:36:24.789Z,3.20
2022-10-19T11:38:51.067Z,3.15
2022-10-19T11:41:26.896Z,3.15
2022-10-19T11:44:12.180Z,2.55
2022-10-19T11:46:41.318Z,2.70
2022-10-19T11:49:17.577Z,2.75
2022-10-19T11:51:57.535Z,2.80
2022-10-19T11:54:23.847Z,2.60
2022-10-19T11:57:11.862Z,2.30
2022-10-19T12:00:03.724Z,4.82
2022-10-19T12:03:01.463Z,3.53
2022-10-19T12:05:41.824Z,2.80
2022-10-19T12:08:20.548Z,3.28
2022-10-19T12:10:58.870Z,2.88
2022-10-19T12:13:40.092Z,3.05
2022-10-19T12:16:07.345Z,2.50
2022-10-19T12:18:42.821Z,2.33
2022-10-19T12:21:18.101Z,2.35
2022-10-19T12:23:45.319Z,3.38
2022-10-19T12:26:15.148Z,4.28
2022-10-19T12:28:43.114Z,3.17
2022-10-19T12:31:10.564Z,2.40
2022-10-19T12:33:36.914Z,4.18
2022-10-19T12:36:22.305Z,4.38
2022-10-19T12:39:12.174Z,5.00
2022-10-19T12:41:53.884Z,3.65
2022-10-19T12:44:20.220Z,3.83
2022-10-19T12:46:51.751Z,3.03
2022-10-19T12:49:26.353Z,3.13
2022-10-19T12:51:53.698Z,1.70
2022-10-19T12:54:27.553Z,2.88
2022-10-19T12:56:55.061Z,2.60
2022-10-19T12:59:32.538Z,3.45
2022-10-19T13:01:59.424Z,2.75
2022-10-19T13:04:30.118Z,2.53
2022-10-19T13:06:56.517Z,2.58
2022-10-19T13:09:38.135Z,2.47
2022-10-19T13:12:16.227Z,3.45
2022-10-19T13:14:59.234Z,2.80
2022-10-19T13:17:37.449Z,1.73
2022-10-19T13:20:12.883Z,4.55
2022-10-19T13:22:39.920Z,2.95
2022-10-19T13:25:18.802Z,2.70
2022-10-19T13:27:48.747Z,4.80
2022-10-19T13:30:33.822Z,11.50
2022-10-19T13:33:00.168Z,4.40
2022-10-19T13:35:30.626Z,4.10
2022-10-19T13:38:09.027Z,2.55
2022-10-19T13:40:41.300Z,2.05
2022-10-19T13:43:17.576Z,2.53
2022-10-19T13:45:44.758Z,3.13
2022-10-19T13:48:17.147Z,2.70
2022-10-19T13:50:57.106Z,3.13
2022-10-19T13:53:34.027Z,2.22
2022-10-19T13:56:11.059Z,2.80
2022-10-19T13:58:40.146Z,2.38
2022-10-19T14:01:25.278Z,1.88
2022-10-19T14:04:02.905Z,1.30
2022-10-19T14:06:35.084Z,2.63
2022-10-19T14:09:01.429Z,1.88
2022-10-19T14:11:31.175Z,2.17
2022-10-19T14:14:18.121Z,1.70
2022-10-19T14:17:04.702Z,2.30
2022-10-19T14:19:42.244Z,1.67
2022-10-19T14:22:25.910Z,1.67
2022-10-19T14:24:52.722Z,1.90
2022-10-19T14:27:21.781Z,2.30
2022-10-19T14:29:49.606Z,2.40
2022-10-19T14:32:17.227Z,2.10
2022-10-19T14:34:44.202Z,1.80
2022-10-19T14:37:16.723Z,2.13
2022-10-19T14:39:43.121Z,1.30
2022-10-19T14:42:10.729Z,1.90
2022-10-19T14:44:41.553Z,1.70
2022-10-19T14:47:20.058Z,2.60
2022-10-19T14:49:46.862Z,2.17
2022-10-19T14:52:17.053Z,2.70
2022-10-19T14:54:45.056Z,2.25
2022-10-19T14:57:20.461Z,1.95
2022-10-19T14:59:46.889Z,1.88
2022-10-19T15:02:22.314Z,2.90
2022-10-19T15:04:49.498Z,2.88
2022-10-19T15:07:20.649Z,3.15
2022-10-19T15:09:55.374Z,3.42
2022-10-19T15:12:25.214Z,2.83
2022-10-19T15:14:51.800Z,2.10
2022-10-19T15:17:28.869Z,1.60
2022-10-19T15:19:56.109Z,2.10
2022-10-19T15:22:26.847Z,1.65
2022-10-19T15:25:21.936Z,1.40
2022-10-19T15:27:50.733Z,1.17
2022-10-19T15:30:17.011Z,1.75
2022-10-19T15:32:44.275Z,1.83
2022-10-19T15:35:16.770Z,1.73
2022-10-19T15:37:44.763Z,2.50
2022-10-19T15:40:20.052Z,1.90
2022-10-19T15:42:48.697Z,1.45
2022-10-19T15:45:47.808Z,1.20
2022-10-19T15:48:37.224Z,1.17
2022-10-19T15:51:03.646Z,1.55
2022-10-19T15:53:29.926Z,2.67
2022-10-19T15:55:57.925Z,2.30
2022-10-19T15:58:24.424Z,1.60
2022-10-19T16:00:50.843Z,1.42
2022-10-19T16:03:17.292Z,1.60
2022-10-19T16:05:43.738Z,2.83
2022-10-19T16:08:12.431Z,3.20
2022-10-19T16:10:38.989Z,2.70
2022-10-19T16:13:05.404Z,2.40
2022-10-19T16:15:31.774Z,2.40
2022-10-19T16:17:59.122Z,2.42
2022-10-19T16:20:26.216Z,2.30
2022-10-19T16:22:52.552Z,1.60
2022-10-19T16:25:18.993Z,2.63
2022-10-19T16:27:45.389Z,2.30
2022-10-19T16:30:11.922Z,2.60
2022-10-19T16:32:39.873Z,2.38
2022-10-19T16:35:08.412Z,2.03
2022-10-19T16:37:35.290Z,1.65
2022-10-19T16:40:01.714Z,1.23
2022-10-19T16:42:30.435Z,1.50
2022-10-19T16:44:57.051Z,0.80
2022-10-19T16:47:23.470Z,1.40
2022-10-19T16:49:56.963Z,1.80
2022-10-19T16:52:23.260Z,1.30
2022-10-19T16:54:49.671Z,1.08
2022-10-19T16:57:16.091Z,0.80
2022-10-19T16:59:42.451Z,0.80
2022-10-19T17:02:09.830Z,0.73
2022-10-19T17:04:36.356Z,0.45
2022-10-19T17:07:02.948Z,1.13
2022-10-19T17:09:41.425Z,0.90
2022-10-19T17:12:08.758Z,0.90
2022-10-19T17:14:35.363Z,1.60
2022-10-19T17:17:01.721Z,1.65
2022-10-19T17:19:28.094Z,2.28
2022-10-19T17:21:55.455Z,2.05
2022-10-19T17:24:22.751Z,1.90
2022-10-19T17:26:52.799Z,2.70
2022-10-19T17:29:19.943Z,2.30
2022-10-19T17:31:46.494Z,2.20
2022-10-19T17:34:12.904Z,2.65
2022-10-19T17:39:13.610Z,3.50
2022-10-19T17:41:39.922Z,2.90
2022-10-19T17:44:06.290Z,2.50
2022-10-19T17:46:33.560Z,1.88
2022-10-19T17:49:00.173Z,2.50
2022-10-19T17:51:28.783Z,2.05
2022-10-19T17:53:57.467Z,1.30
2022-10-19T17:56:24.200Z,3.50
2022-10-19T17:58:50.750Z,2.50
2022-10-19T18:01:17.773Z,2.30
2022-10-19T18:03:44.175Z,2.20
2022-10-19T18:06:11.947Z,2.97
2022-10-19T18:08:40.151Z,2.35
2022-10-19T18:11:08.045Z,2.25
2022-10-19T18:13:34.670Z,2.00
2022-10-19T18:16:05.570Z,2.60
2022-10-19T18:18:33.030Z,2.35
2022-10-19T18:20:59.686Z,3.15
2022-10-19T18:23:26.240Z,2.63
2022-10-19T18:25:54.149Z,3.03
2022-10-19T18:28:20.857Z,2.58
2022-10-19T18:30:47.355Z,2.38
2022-10-19T18:33:13.773Z,1.98
2022-10-19T18:35:40.254Z,2.25
2022-10-19T18:38:07.497Z,1.50
2022-10-19T18:40:34.772Z,1.52
2022-10-19T18:43:01.189Z,2.00
2022-10-19T18:45:27.495Z,1.70
2022-10-19T18:47:53.825Z,2.38
2022-10-19T18:50:20.201Z,1.80
2022-10-19T18:52:46.547Z,1.70
2022-10-19T18:55:14.110Z,1.83
2022-10-19T18:57:40.452Z,2.75
2022-10-19T19:00:07.101Z,2.30
2022-10-19T19:02:46.377Z,2.17
2022-10-19T19:05:13.446Z,1.63
2022-10-19T19:07:39.774Z,1.50
2022-10-19T19:10:06.335Z,1.80
2022-10-19T19:12:33.028Z,1.92
2022-10-19T19:14:59.519Z,2.47
2022-10-19T19:17:25.802Z,2.63
2022-10-19T19:19:52.215Z,3.60
2022-10-19T19:22:18.769Z,3.08
2022-10-19T19:24:45.140Z,4.15
2022-10-19T19:27:11.508Z,3.83
2022-10-19T19:29:37.810Z,3.47
2022-10-19T19:32:04.516Z,3.70
2022-10-19T19:34:30.904Z,3.13
2022-10-19T19:36:57.182Z,2.90
2022-10-19T19:39:23.484Z,4.00
2022-10-19T19:41:49.968Z,3.60
2022-10-19T19:44:16.755Z,5.50
2022-10-19T19:46:43.138Z,4.20
2022-10-19T19:49:09.578Z,3.50
2022-10-19T19:51:35.932Z,4.65
2022-10-19T19:54:02.367Z,3.00
2022-10-19T19:56:29.209Z,4.35
2022-10-19T19:58:56.792Z,4.95
2022-10-19T20:01:23.263Z,4.85
2022-10-19T20:03:49.786Z,4.75
2022-10-19T20:06:19.572Z,3.20
2022-10-19T20:08:48.531Z,2.60
2022-10-19T20:11:16.057Z,4.13
2022-10-19T20:13:43.382Z,4.97
2022-10-19T20:16:09.690Z,4.20
2022-10-19T20:18:36.200Z,5.35
2022-10-19T20:21:03.104Z,4.57
2022-10-19T20:23:29.966Z,4.97
2022-10-19T20:25:56.513Z,4.53
2022-10-19T20:28:26.057Z,3.47
2022-10-19T20:31:08.370Z,3.63
2022-10-19T20:33:35.916Z,3.63
2022-10-19T20:36:06.461Z,4.57
2022-10-19T20:38:33.791Z,4.80
2022-10-19T20:41:05.509Z,3.60
2022-10-19T20:43:34.686Z,3.67
2022-10-19T20:46:05.200Z,5.00
2022-10-19T20:48:31.922Z,3.38
2022-10-19T20:51:18.110Z,3.58
2022-10-19T20:53:47.568Z,2.10
2022-10-19T20:56:15.153Z,2.55
2022-10-19T20:58:43.607Z,3.58
2022-10-19T21:01:11.293Z,2.35
2022-10-19T21:03:37.828Z,2.80
2022-10-19T21:06:08.219Z,2.30
2022-10-19T21:08:35.438Z,4.32
2022-10-19T21:11:10.509Z,2.63
2022-10-19T21:13:36.803Z,3.00
2022-10-19T21:16:16.758Z,2.95
2022-10-19T21:18:43.581Z,2.90
2022-10-19T21:21:18.053Z,1.80
2022-10-19T21:23:45.083Z,1.65
2022-10-19T21:26:11.743Z,2.20
2022-10-19T21:28:38.672Z,2.17
2022-10-19T21:31:06.113Z,1.90
2022-10-19T21:33:32.554Z,2.50
2022-10-19T21:36:06.000Z,3.15
2022-10-19T21:38:32.498Z,3.00
2022-10-19T21:40:59.595Z,3.53
2022-10-19T21:43:26.275Z,3.65
2022-10-19T21:45:52.662Z,2.45
2022-10-19T21:48:19.023Z,2.33
2022-10-19T21:50:45.468Z,2.45
2022-10-19T21:53:11.747Z,4.63
2022-10-19T21:55:38.522Z,4.03
2022-10-19T21:58:05.069Z,4.93
2022-10-19T22:00:31.429Z,5.90
2022-10-19T22:02:57.713Z,3.78
2022-10-19T22:05:24.123Z,3.60
2022-10-19T22:07:50.552Z,3.38
2022-10-19T22:10:16.934Z,2.83
2022-10-19T22:12:43.334Z,3.13
2022-10-19T22:15:09.964Z,3.35
2022-10-19T22:17:36.259Z,3.10
2022-10-19T22:20:02.951Z,3.03
2022-10-19T22:22:29.235Z,1.90
2022-10-19T22:24:55.519Z,3.13
2022-10-19T22:27:21.957Z,3.08
2022-10-19T22:29:48.236Z,3.75
2022-10-19T22:32:14.526Z,4.03
2022-10-19T22:34:40.930Z,3.15
2022-10-19T22:37:07.212Z,3.60
2022-10-19T22:39:33.537Z,3.45
2022-10-19T22:41:59.945Z,2.75
2022-10-19T22:44:26.290Z,2.58
2022-10-19T22:46:52.733Z,3.10
2022-10-19T22:49:19.260Z,3.08
2022-10-19T22:51:45.541Z,3.00
2022-10-19T22:54:11.895Z,4.15
2022-10-19T22:56:38.388Z,4.65
2022-10-19T22:59:05.282Z,6.20
2022-10-19T23:01:32.096Z,4.55
2022-10-19T23:03:58.600Z,4.22
2022-10-19T23:06:25.288Z,5.15
2022-10-19T23:08:51.664Z,4.38
2022-10-19T23:11:18.028Z,5.90
2022-10-19T23:13:44.306Z,5.22
2022-10-19T23:16:10.840Z,4.97
2022-10-19T23:18:38.676Z,5.43
2022-10-19T23:21:10.377Z,4.05
2022-10-19T23:23:37.083Z,5.72
2022-10-19T23:26:04.955Z,6.43
2022-10-19T23:28:31.849Z,4.75
2022-10-19T23:30:59.109Z,5.25
2022-10-19T23:33:26.109Z,4.93
2022-10-19T23:35:52.391Z,4.10
2022-10-19T23:38:18.692Z,5.85
2022-10-19T23:40:45.043Z,4.45
2022-10-19T23:43:11.591Z,5.00
2022-10-19T23:45:38.841Z,5.95
2022-10-19T23:48:05.293Z,5.30
2022-10-19T23:50:31.579Z,5.50
2022-10-19T23:52:57.875Z,5.55
2022-10-19T23:55:24.260Z,6.50
2022-10-19T23:57:50.553Z,5.47
